Time;durP1;ratioP1;P1;durP2;ratioP2;P2;SDS_P1;SDS_P2;PMS_P1;PMS_P2;Temp;Humidity;BMP_temperature;BMP_pressure;BME280_temperature;BME280_humidity;BME280_pressure;Samples;Min_cycle;Max_cycle;Signal;HPM_P1;HPM_P2
2022/02/07 00:00:08;;;;;;;1.67;0.20;;;;;;;-146.41;100.00;57768.22;5024371;28;20135;-66
2022/02/07 00:03:02;;;;;;;1.02;0.30;;;;;;;-146.41;100.00;57768.22;5026485;28;20149;-66
2022/02/07 00:05:28;;;;;;;3.65;0.40;;;;;;;-146.41;100.00;57768.22;5023882;28;20378;-66
2022/02/07 00:07:58;;;;;;;2.92;0.30;;;;;;;-146.41;100.00;57768.22;5026322;28;20547;-66
2022/02/07 00:10:27;;;;;;;1.30;0.30;;;;;;;-146.41;100.00;57768.22;5024161;28;20077;-66
2022/02/07 00:12:55;;;;;;;1.63;0.28;;;;;;;-146.41;100.00;57768.22;5024162;28;20151;-66
2022/02/07 00:15:24;;;;;;;1.48;0.30;;;;;;;-146.41;100.00;57768.22;5023835;28;20116;-65
2022/02/07 00:17:52;;;;;;;6.43;0.40;;;;;;;-146.41;100.00;57768.22;5020720;28;20536;-66
2022/02/07 00:20:22;;;;;;;3.92;0.40;;;;;;;-146.41;100.00;57768.22;5021827;28;20057;-65
2022/02/07 00:22:51;;;;;;;2.42;0.40;;;;;;;-146.41;100.00;57768.22;5023770;28;20056;-66
2022/02/07 00:25:20;;;;;;;2.33;0.30;;;;;;;-146.41;100.00;57768.22;5024828;28;20127;-66
2022/02/07 00:27:49;;;;;;;4.15;1.10;;;;;;;-146.41;100.00;57768.22;5022381;28;20166;-66
2022/02/07 00:30:19;;;;;;;2.90;0.40;;;;;;;-146.41;100.00;57768.22;5023252;28;20067;-66
2022/02/07 00:32:48;;;;;;;2.20;0.40;;;;;;;-146.41;100.00;57768.22;5022625;28;20144;-66
2022/02/07 00:35:20;;;;;;;2.63;0.40;;;;;;;-146.41;100.00;57768.22;5022824;28;20412;-67
2022/02/07 00:37:51;;;;;;;0.90;0.28;;;;;;;-146.41;100.00;57768.22;5021913;28;20512;-66
2022/02/07 00:43:00;;;;;;;3.65;0.40;;;;;;;-146.41;100.00;57768.22;5022142;28;20049;-67
2022/02/07 00:48:02;;;;;;;5.07;0.60;;;;;;;-146.41;100.00;57768.22;5025830;28;20564;-66
2022/02/07 00:50:31;;;;;;;2.13;0.40;;;;;;;-146.41;100.00;57768.22;5023212;28;20144;-67
2022/02/07 00:52:59;;;;;;;4.47;0.43;;;;;;;-146.41;100.00;57768.22;5024998;28;20124;-67
2022/02/07 00:55:28;;;;;;;4.53;0.40;;;;;;;-146.41;100.00;57768.22;5022274;28;20049;-66
2022/02/07 00:57:56;;;;;;;3.22;0.55;;;;;;;-146.41;100.00;57768.22;5046479;28;20054;-67
2022/02/07 01:00:25;;;;;;;4.70;0.30;;;;;;;-146.41;100.00;57768.22;5023756;28;20124;-66
2022/02/07 01:02:53;;;;;;;4.18;0.60;;;;;;;-146.41;100.00;57768.22;5024673;28;20128;-66
2022/02/07 01:05:22;;;;;;;6.30;0.63;;;;;;;-146.41;100.00;57768.22;5020085;28;20054;-66
2022/02/07 01:07:52;;;;;;;1.65;0.40;;;;;;;-146.41;100.00;57768.22;5021969;28;20041;-66
2022/02/07 01:10:32;;;;;;;4.28;0.60;;;;;;;-146.41;100.00;57768.22;5023474;28;20073;-66
2022/02/07 01:13:10;;;;;;;3.63;0.60;;;;;;;-146.41;100.00;57768.22;5020385;28;20059;-66
2022/02/07 01:22:10;;;;;;;3.67;0.43;;;;;;;-146.41;100.00;57768.22;5021540;28;20128;-66
2022/02/07 01:53:55;;;;;;;5.20;0.82;;;;;;;-146.41;100.00;57768.22;5019421;28;20129;-67
2022/02/07 01:56:28;;;;;;;5.43;0.80;;;;;;;-146.41;100.00;57768.22;5020716;28;20055;-66
2022/02/07 01:58:56;;;;;;;5.38;0.70;;;;;;;-146.41;100.00;57768.22;5023198;28;20052;-67
2022/02/07 02:01:25;;;;;;;10.88;0.82;;;;;;;-146.41;100.00;57768.22;5021138;28;20049;-66
2022/02/07 02:03:53;;;;;;;5.25;0.52;;;;;;;-146.41;100.00;57768.22;5026818;28;20050;-66
2022/02/07 02:06:22;;;;;;;4.88;0.60;;;;;;;-146.41;100.00;57768.22;5023495;28;20088;-66
2022/02/07 02:08:51;;;;;;;4.72;0.65;;;;;;;-146.41;100.00;57768.22;5024526;28;20089;-67
2022/02/07 02:11:19;;;;;;;6.80;1.00;;;;;;;-146.41;100.00;57768.22;5025919;28;20051;-67
2022/02/07 02:20:18;;;;;;;8.68;1.20;;;;;;;-146.41;100.00;57768.22;5000606;28;20425;-66
2022/02/07 02:36:34;;;;;;;4.90;0.77;;;;;;;-146.41;100.00;57768.22;5018935;28;20062;-66
2022/02/07 02:47:28;;;;;;;6.28;0.75;;;;;;;-146.41;100.00;57768.22;5022819;28;20056;-66
2022/02/07 02:50:07;;;;;;;6.30;0.70;;;;;;;-146.41;100.00;57768.22;5017922;28;20145;-67
2022/02/07 02:52:35;;;;;;;5.82;0.82;;;;;;;-146.41;100.00;57768.22;5019961;28;20446;-66
2022/02/07 02:55:04;;;;;;;8.18;0.93;;;;;;;-146.41;100.00;57768.22;5021992;28;20557;-66
2022/02/07 02:57:32;;;;;;;6.25;0.70;;;;;;;-146.41;100.00;57768.22;5020798;28;20045;-66
2022/02/07 03:00:00;;;;;;;4.88;0.57;;;;;;;-146.41;100.00;57768.22;5018423;28;20053;-66
2022/02/07 03:02:28;;;;;;;2.65;0.50;;;;;;;-146.41;100.00;57768.22;5017568;28;20407;-66
2022/02/07 03:04:57;;;;;;;3.13;0.35;;;;;;;-146.41;100.00;57768.22;5021999;28;20363;-66
2022/02/07 03:07:25;;;;;;;3.90;0.60;;;;;;;-146.41;100.00;57768.22;5023034;28;20393;-66
2022/02/07 03:09:56;;;;;;;6.10;0.50;;;;;;;-146.41;100.00;57768.22;5022286;28;20544;-66
2022/02/07 03:12:27;;;;;;;3.07;0.47;;;;;;;-146.41;100.00;57768.22;5019328;28;20050;-67
2022/02/07 03:15:13;;;;;;;2.15;0.43;;;;;;;-146.41;100.00;57768.22;5034209;28;20417;-67
2022/02/07 03:17:41;;;;;;;1.35;0.30;;;;;;;-146.41;100.00;57768.22;5018966;28;20062;-66
2022/02/07 03:20:09;;;;;;;2.72;0.50;;;;;;;-146.41;100.00;57768.22;5019940;28;21035;-66
2022/02/07 03:22:36;;;;;;;5.55;0.50;;;2.70;99.90;;;-146.41;100.00;57768.22;5022125;28;20175;-66
2022/02/07 03:25:04;;;;;;;2.08;0.50;;;2.60;99.90;;;-146.41;100.00;57768.22;5020938;28;20467;-66
2022/02/07 03:27:31;;;;;;;1.83;0.32;;;2.60;99.90;;;-146.41;100.00;57768.22;5018056;28;20140;-66
2022/02/07 03:29:57;;;;;;;3.33;0.45;;;2.50;99.90;;;-146.41;100.00;57768.22;5019292;28;20145;-66
2022/02/07 03:32:24;;;;;;;5.07;0.73;;;2.40;99.90;;;-146.41;100.00;57768.22;5020726;28;20165;-66
2022/02/07 03:34:52;;;;;;;7.13;0.60;;;;;;;-146.41;100.00;57768.22;5023660;28;20140;-66
2022/02/07 03:37:18;;;;;;;3.33;0.50;;;2.40;99.90;;;-146.41;100.00;57768.22;5019024;28;20245;-66
2022/02/07 03:39:45;;;;;;;6.47;0.52;;;2.30;99.90;;;-146.41;100.00;57768.22;5021720;28;20091;-66
2022/02/07 03:42:12;;;;;;;3.25;0.40;;;2.30;99.90;;;-146.41;100.00;57768.22;5020903;28;20546;-66
2022/02/07 03:44:40;;;;;;;4.95;0.80;;;2.20;99.90;;;-146.41;100.00;57768.22;5022363;28;20493;-66
2022/02/07 03:47:06;;;;;;;4.13;0.55;;;2.30;99.90;;;-146.41;100.00;57768.22;5015510;28;20372;-66
2022/02/07 03:49:35;;;;;;;2.25;0.40;;;2.30;99.90;;;-146.41;100.00;57768.22;5015231;28;20049;-66
2022/02/07 03:52:02;;;;;;;6.43;0.70;;;2.30;99.90;;;-146.41;100.00;57768.22;5018268;28;20425;-66
2022/02/07 03:54:29;;;;;;;4.07;0.50;;;2.40;99.90;;;-146.41;100.00;57768.22;5020328;28;20049;-66
2022/02/07 03:56:55;;;;;;;5.95;0.50;;;2.40;99.90;;;-146.41;100.00;57768.22;5021458;28;20053;-66
2022/02/07 03:59:22;;;;;;;2.30;0.40;;;2.50;99.90;;;-146.41;100.00;57768.22;5021151;28;20441;-66
2022/02/07 04:01:49;;;;;;;4.40;0.70;;;2.50;99.90;;;-146.41;100.00;57768.22;5016316;28;20053;-66
2022/02/07 04:04:16;;;;;;;4.28;0.52;;;2.40;99.90;;;-146.41;100.00;57768.22;5018725;28;20194;-66
2022/02/07 04:06:43;;;;;;;6.43;0.80;;;2.40;99.90;;;-146.41;100.00;57768.22;5019654;28;20050;-67
2022/02/07 04:09:13;;;;;;;2.92;0.68;;;2.40;99.90;;;-146.41;100.00;57768.22;5023182;28;20251;-67
2022/02/07 04:11:49;;;;;;;5.88;0.60;;;2.50;99.90;;;-146.41;100.00;57768.22;5021470;28;20057;-67
2022/02/07 04:14:22;;;;;;;6.78;0.80;;;2.50;99.90;;;-146.41;100.00;57768.22;5023353;28;20068;-67
2022/02/07 04:16:49;;;;;;;10.00;0.77;;;2.50;99.90;;;-146.41;100.00;57768.22;5022603;28;20050;-67
2022/02/07 04:19:21;;;;;;;7.25;0.52;;;2.40;99.90;;;-146.41;100.00;57768.22;5018412;28;20050;-67
2022/02/07 04:21:51;;;;;;;6.00;0.80;;;2.40;99.90;;;-146.41;100.00;57768.22;5020126;28;20050;-67
2022/02/07 04:24:19;;;;;;;7.72;0.90;;;2.50;99.90;;;-146.41;100.00;57768.22;5017860;28;20045;-66
2022/02/07 04:26:46;;;;;;;6.97;0.80;;;2.60;99.90;;;-146.41;100.00;57768.22;5021084;28;20478;-66
2022/02/07 04:29:13;;;;;;;4.95;0.60;;;2.60;99.90;;;-146.41;100.00;57768.22;5018212;28;20060;-65
2022/02/07 04:31:40;;;;;;;2.20;0.40;;;2.70;99.90;;;-146.41;100.00;57768.22;5017136;28;20049;-65
2022/02/07 04:34:07;;;;;;;4.20;0.85;;;2.70;99.90;;;-146.41;100.00;57768.22;5019863;28;20096;-68
2022/02/07 04:36:34;;;;;;;13.48;0.80;;;2.70;99.90;;;-146.41;100.00;57768.22;5021225;28;20045;-65
2022/02/07 04:39:01;;;;;;;9.52;1.48;;;2.50;99.90;;;-146.41;100.00;57768.22;5022505;28;20053;-65
2022/02/07 04:41:28;;;;;;;7.30;0.90;;;2.50;99.90;;;-146.41;100.00;57768.22;5014830;28;20076;-68
2022/02/07 04:44:02;;;;;;;9.13;1.00;;;2.40;99.90;;;-146.41;100.00;57768.22;5020265;28;20379;-65
2022/02/07 04:51:57;;;;;;;9.82;0.85;;;2.30;99.90;;;-146.41;100.00;57768.22;5016075;28;20421;-67
2022/02/07 04:57:43;;;;;;;8.45;1.25;;;2.20;99.90;;;-146.41;100.00;57768.22;5024997;28;20626;-68
2022/02/07 05:03:18;;;;;;;8.85;0.80;;;2.20;99.90;;;-146.41;100.00;57768.22;5027411;28;20041;-67
2022/02/07 05:16:28;;;;;;;8.70;1.00;;;2.20;99.90;;;-146.41;100.00;57768.22;5023842;28;20445;-66
2022/02/07 05:18:57;;;;;;;10.80;1.25;;;2.30;99.90;;;-146.41;100.00;57768.22;5022017;28;20387;-66
2022/02/07 05:21:25;;;;;;;9.38;1.20;;;2.40;99.90;;;-146.41;100.00;57768.22;5024133;28;20134;-67
2022/02/07 05:23:53;;;;;;;13.65;1.30;;;2.50;99.90;;;-146.41;100.00;57768.22;5025990;28;20067;-66
2022/02/07 05:26:22;;;;;;;10.00;0.93;;;2.60;99.90;;;-146.41;100.00;57768.22;5023126;28;20048;-66
2022/02/07 05:28:49;;;;;;;7.15;0.98;;;2.60;99.90;;;-146.41;100.00;57768.22;5019894;28;20053;-67
2022/02/07 05:31:19;;;;;;;9.38;1.00;;;2.60;99.90;;;-146.41;100.00;57768.22;5020186;28;20502;-67
2022/02/07 05:33:46;;;;;;;9.38;0.90;;;2.60;99.90;;;-146.41;100.00;57768.22;5022116;28;20461;-67
2022/02/07 05:36:13;;;;;;;8.35;1.33;;;2.60;99.90;;;-146.41;100.00;57768.22;5025349;28;20148;-67
2022/02/07 05:38:45;;;;;;;8.30;1.30;;;2.60;99.90;;;-146.41;100.00;57768.22;5023427;28;20057;-67
2022/02/07 05:41:13;;;;;;;9.52;0.95;;;2.50;99.90;;;-146.41;100.00;57768.22;5020866;28;20053;-67
2022/02/07 05:43:44;;;;;;;9.00;0.95;;;2.40;99.90;;;-146.41;100.00;57768.22;5025914;28;20041;-67
2022/02/07 05:46:11;;;;;;;13.80;2.20;;;2.40;99.90;;;-146.41;100.00;57768.22;5024406;28;20107;-67
2022/02/07 05:48:38;;;;;;;9.05;1.30;;;2.30;99.90;;;-146.41;100.00;57768.22;5026100;28;20056;-68
2022/02/07 05:51:06;;;;;;;14.70;1.25;;;2.30;99.90;;;-146.41;100.00;57768.22;5028959;28;20076;-67
2022/02/07 05:53:32;;;;;;;8.30;1.50;;;2.30;99.90;;;-146.41;100.00;57768.22;5029381;28;20041;-67
2022/02/07 05:55:59;;;;;;;10.38;1.30;;;2.30;99.90;;;-146.41;100.00;57768.22;5020237;28;20132;-67
2022/02/07 05:58:28;;;;;;;8.52;1.55;;;2.30;99.90;;;-146.41;100.00;57768.22;5020556;28;20056;-67
2022/02/07 06:00:55;;;;;;;6.30;1.27;;;2.30;99.90;;;-146.41;100.00;57768.22;5023543;28;20444;-67
2022/02/07 06:03:22;;;;;;;9.77;1.20;;;2.40;99.90;;;-146.41;100.00;57768.22;5024792;28;20141;-68
2022/02/07 06:05:49;;;;;;;10.40;1.50;;;2.50;99.90;;;-146.41;100.00;57768.22;5022116;28;20058;-67
2022/02/07 06:08:17;;;;;;;9.70;1.30;;;2.50;99.90;;;-146.41;100.00;57768.22;5014686;28;20442;-67
2022/02/07 06:10:47;;;;;;;9.48;1.48;;;2.50;99.90;;;-146.41;100.00;57768.22;5020767;28;20129;-67
2022/02/07 06:13:17;;;;;;;5.40;1.02;;;2.50;99.90;;;-146.41;100.00;57768.22;5023941;28;20128;-67
2022/02/07 06:15:45;;;;;;;11.85;1.40;;;2.50;99.90;;;-146.41;100.00;57768.22;5021857;28;20079;-67
2022/02/07 06:18:16;;;;;;;7.55;0.90;;;2.40;99.90;;;-146.41;100.00;57768.22;5040234;28;20064;-67
2022/02/07 06:20:43;;;;;;;10.13;1.33;;;2.30;99.90;;;-146.41;100.00;57768.22;5023238;28;20042;-67
2022/02/07 06:23:10;;;;;;;4.32;0.77;;;2.30;99.90;;;-146.41;100.00;57768.22;5020516;28;20069;-67
2022/02/07 06:25:37;;;;;;;9.45;1.00;;;2.30;99.90;;;-146.41;100.00;57768.22;5024411;28;20140;-67
2022/02/07 06:28:04;;;;;;;7.18;1.50;;;2.30;99.90;;;-146.41;100.00;57768.22;5022932;28;20482;-67
2022/02/07 06:30:31;;;;;;;15.98;1.63;;;2.30;99.90;;;-146.41;100.00;57768.22;5018522;28;20046;-67
2022/02/07 06:32:58;;;;;;;10.73;1.60;;;2.40;99.90;;;-146.41;100.00;57768.22;5025180;28;20452;-68
2022/02/07 06:35:25;;;;;;;18.05;4.40;;;2.40;99.90;;;-146.41;100.00;57768.22;5020716;28;20124;-67
2022/02/07 06:37:52;;;;;;;15.80;2.65;;;2.40;99.90;;;-146.41;100.00;57768.22;5021245;28;20046;-67
2022/02/07 06:40:21;;;;;;;13.02;1.92;;;2.50;99.90;;;-146.41;100.00;57768.22;5026305;28;20045;-67
2022/02/07 06:42:47;;;;;;;14.13;2.55;;;2.40;99.90;;;-146.41;100.00;57768.22;5026200;28;20634;-68
2022/02/07 06:45:14;;;;;;;10.32;2.20;;;2.40;99.90;;;-146.41;100.00;57768.22;5020411;28;20057;-67
2022/02/07 06:47:42;;;;;;;9.10;1.80;;;2.30;99.90;;;-146.41;100.00;57768.22;5018812;28;20129;-67
2022/02/07 06:50:09;;;;;;;14.07;2.20;;;2.30;99.90;;;-146.41;100.00;57768.22;5022999;28;20077;-67
2022/02/07 06:52:37;;;;;;;9.20;2.08;;;2.30;99.90;;;-146.41;100.00;57768.22;5021948;28;20143;-67
2022/02/07 06:55:06;;;;;;;10.10;1.48;;;2.30;99.90;;;-146.41;100.00;57768.22;5018893;28;20539;-67
2022/02/07 06:57:34;;;;;;;11.93;2.00;;;2.30;99.90;;;-146.41;100.00;57768.22;5016370;28;20433;-67
2022/02/07 07:00:06;;;;;;;13.38;2.30;;;2.20;99.90;;;-146.41;100.00;57768.22;5023021;28;20370;-67
2022/02/07 07:02:33;;;;;;;11.43;1.90;;;2.20;99.90;;;-146.41;100.00;57768.22;5027285;28;20045;-67
2022/02/07 07:05:08;;;;;;;8.43;1.75;;;2.20;99.90;;;-146.41;100.00;57768.22;5023230;28;20417;-67
2022/02/07 07:07:36;;;;;;;11.02;1.45;;;2.10;99.90;;;-146.41;100.00;57768.22;5019539;28;20506;-69
2022/02/07 07:10:05;;;;;;;10.00;1.95;;;2.10;99.90;;;-146.41;100.00;57768.22;5024158;28;20462;-67
2022/02/07 07:12:32;;;;;;;8.93;1.80;;;2.20;99.90;;;-146.41;100.00;57768.22;5024724;28;20049;-67
2022/02/07 07:17:35;;;;;;;14.57;1.60;;;2.30;99.90;;;-146.41;100.00;57768.22;5020019;28;20144;-67
2022/02/07 07:20:08;;;;;;;11.80;1.23;;;2.40;99.90;;;-146.41;100.00;57768.22;5021271;28;20057;-67
2022/02/07 07:22:35;;;;;;;13.00;2.15;;;2.60;99.90;;;-146.41;100.00;57768.22;5020340;28;20044;-67
2022/02/07 07:25:05;;;;;;;8.48;1.55;;;2.50;99.90;;;-146.41;100.00;57768.22;5021446;28;20113;-67
2022/02/07 07:27:37;;;;;;;9.15;2.13;;;2.50;99.90;;;-146.41;100.00;57768.22;5025256;28;20049;-67
2022/02/07 07:30:05;;;;;;;10.43;1.58;;;2.50;99.90;;;-146.41;100.00;57768.22;5026112;28;20132;-67
2022/02/07 07:32:33;;;;;;;15.13;1.77;;;2.50;99.90;;;-146.41;100.00;57768.22;5023447;28;20124;-67
2022/02/07 07:35:01;;;;;;;5.93;0.98;;;2.50;99.90;;;-146.41;100.00;57768.22;5018095;28;20136;-67
2022/02/07 07:37:28;;;;;;;10.30;2.00;;;2.50;99.90;;;-146.41;100.00;57768.22;5021090;28;20449;-67
2022/02/07 07:39:56;;;;;;;9.95;1.75;;;2.60;99.90;;;-146.41;100.00;57768.22;5022023;28;20042;-67
2022/02/07 07:42:22;;;;;;;10.30;1.85;;;2.70;99.90;;;-146.41;100.00;57768.22;5023248;28;20049;-67
2022/02/07 07:44:53;;;;;;;9.52;2.00;;;2.80;99.90;;;-146.41;100.00;57768.22;5020865;28;20069;-68
2022/02/07 07:47:25;;;;;;;8.05;1.60;;;2.90;99.90;;;-146.41;100.00;57768.22;5023416;28;20140;-67
2022/02/07 07:50:04;;;;;;;9.40;1.50;;;3.00;99.90;;;-146.41;100.00;57768.22;5009811;28;20140;-68
2022/02/07 07:52:46;;;;;;;8.95;1.48;;;3.10;99.90;;;-146.41;100.00;57768.22;5020131;28;20133;-67
2022/02/07 08:01:16;;;;;;;11.93;1.83;;;3.20;99.90;;;-146.41;100.00;57768.22;5027058;28;20113;-68
2022/02/07 08:01:24;;;;;;;10.50;1.42;;;3.20;99.90;;;-146.41;100.00;57768.22;5019057;28;20125;-67
2022/02/07 08:03:53;;;;;;;16.00;1.75;;;3.30;99.90;;;-146.41;100.00;57768.22;5018463;28;20059;-67
2022/02/07 08:06:26;;;;;;;13.32;1.50;;;3.40;99.90;;;-146.41;100.00;57768.22;5021821;28;20117;-68
2022/02/07 08:11:30;;;;;;;16.00;2.15;;;3.20;99.90;;;-146.41;100.00;57768.22;5019986;28;20053;-68
2022/02/07 08:14:00;;;;;;;15.52;2.15;;;3.20;99.90;;;-146.41;100.00;57768.22;5023158;28;20056;-68
2022/02/07 08:16:28;;;;;;;9.95;1.63;;;3.10;99.90;;;-146.41;100.00;57768.22;5019670;28;20136;-67
2022/02/07 08:18:59;;;;;;;19.13;2.58;;;3.10;99.90;;;-146.41;100.00;57768.22;5023667;28;20048;-68
2022/02/07 08:21:26;;;;;;;9.73;1.80;;;3.00;99.90;;;-146.41;100.00;57768.22;5024469;28;20550;-67
2022/02/07 08:23:53;;;;;;;8.77;1.52;;;3.10;99.90;;;-146.41;100.00;57768.22;5021349;28;20132;-68
2022/02/07 08:26:21;;;;;;;10.60;2.03;;;3.20;99.90;;;-146.41;100.00;57768.22;5018100;28;20464;-67
2022/02/07 08:28:48;;;;;;;10.70;1.30;;;3.20;99.90;;;-146.41;100.00;57768.22;5022058;28;20129;-67
2022/02/07 08:31:17;;;;;;;10.13;1.23;;;3.20;99.90;;;-146.41;100.00;57768.22;5017112;28;20429;-67
2022/02/07 08:33:46;;;;;;;11.52;1.42;;;3.20;99.90;;;-146.41;100.00;57768.22;5020144;28;20125;-68
2022/02/07 08:36:16;;;;;;;5.47;1.08;;;3.30;99.90;;;-146.41;100.00;57768.22;5018415;28;20118;-67
2022/02/07 08:38:43;;;;;;;10.35;1.48;;;3.30;99.90;;;-146.41;100.00;57768.22;5016814;28;20049;-67
2022/02/07 08:41:11;;;;;;;10.35;1.50;;;3.30;99.90;;;-146.41;100.00;57768.22;5020936;28;20046;-67
2022/02/07 08:43:37;;;;;;;12.15;2.05;;;3.20;99.90;;;-146.41;100.00;57768.22;5019750;28;20136;-67
2022/02/07 08:46:05;;;;;;;12.15;1.50;;;3.30;99.90;;;-146.41;100.00;57768.22;5021542;28;20073;-67
2022/02/07 08:48:32;;;;;;;10.30;1.65;;;3.40;99.90;;;-146.41;100.00;57768.22;5018214;28;20069;-67
2022/02/07 08:51:00;;;;;;;11.38;1.52;;;3.40;99.90;;;-146.41;100.00;57768.22;5025499;28;20033;-67
2022/02/07 08:53:33;;;;;;;8.80;1.23;;;3.40;99.90;;;-146.41;100.00;57768.22;5016202;28;20080;-67
2022/02/07 08:56:01;;;;;;;;;;;3.50;99.90;;;-146.41;100.00;57768.22;5020279;28;20132;-67
2022/02/07 08:58:32;;;;;;;8.00;1.05;;;3.70;99.90;;;-146.41;100.00;57768.22;5020945;28;19936;-67
2022/02/07 09:01:50;;;;;;;9.82;1.33;;;3.90;99.90;;;-146.41;100.00;57768.22;5021112;28;20069;-67
2022/02/07 09:06:42;;;;;;;12.60;1.40;;;4.30;99.90;;;-146.41;100.00;57768.22;5017614;28;20052;-67
2022/02/07 09:09:20;;;;;;;13.25;1.40;;;4.50;99.90;;;-146.41;100.00;57768.22;5023762;28;20148;-67
2022/02/07 09:11:47;;;;;;;11.35;1.25;;;4.50;99.90;;;-146.41;100.00;57768.22;5017255;28;20068;-67
2022/02/07 09:14:21;;;;;;;10.45;1.52;;;4.60;99.90;;;-146.41;100.00;57768.22;5018735;28;20041;-66
2022/02/07 09:16:49;;;;;;;12.57;1.38;;;4.60;99.90;;;-146.41;100.00;57768.22;5020595;28;20429;-67
2022/02/07 09:19:19;;;;;;;13.65;1.55;;;4.50;99.90;;;-146.41;100.00;57768.22;5019415;28;20120;-67
2022/02/07 09:21:49;;;;;;;9.90;1.13;;;4.50;99.90;;;-146.41;100.00;57768.22;5015645;28;20191;-67
2022/02/07 09:24:17;;;;;;;9.23;1.42;;;4.30;99.90;;;-146.41;100.00;57768.22;5022455;28;20045;-67
2022/02/07 09:26:44;;;;;;;13.18;1.23;;;4.30;99.90;;;-146.41;100.00;57768.22;5020693;28;20462;-67
2022/02/07 09:29:11;;;;;;;14.50;1.67;;;4.30;99.90;;;-146.41;100.00;57768.22;5022357;28;20053;-67
2022/02/07 09:31:38;;;;;;;11.60;1.63;;;4.20;99.90;;;-146.41;100.00;57768.22;5024364;28;20132;-66
2022/02/07 09:34:06;;;;;;;9.30;1.10;;;4.10;99.90;;;-146.41;100.00;57768.22;5016218;28;20078;-67
2022/02/07 09:36:33;;;;;;;11.95;1.63;;;4.10;99.90;;;-146.41;100.00;57768.22;5023005;28;20052;-66
2022/02/07 09:39:00;;;;;;;11.98;1.60;;;4.20;99.90;;;-146.41;100.00;57768.22;5024669;28;20557;-66
2022/02/07 09:41:31;;;;;;;14.27;1.70;;;4.20;99.90;;;-146.41;100.00;57768.22;5023353;28;20107;-66
2022/02/07 09:44:01;;;;;;;7.30;1.05;;;4.20;99.90;;;-146.41;100.00;57768.22;5023999;28;20072;-67
2022/02/07 09:46:45;;;;;;;18.38;1.23;;;4.20;99.90;;;-146.41;100.00;57768.22;5024819;28;20045;-66
2022/02/07 09:49:18;;;;;;;11.73;1.60;;;4.20;99.90;;;-146.41;100.00;57768.22;5025608;28;20054;-67
2022/02/07 09:51:48;;;;;;;9.35;1.50;;;4.30;99.90;;;-146.41;100.00;57768.22;5027739;28;20503;-66
2022/02/07 09:54:22;;;;;;;13.52;1.70;;;4.30;99.90;;;-146.41;100.00;57768.22;5026161;28;20077;-66
2022/02/07 09:56:51;;;;;;;8.27;1.50;;;4.30;99.90;;;-146.41;100.00;57768.22;5030080;28;20137;-67
2022/02/07 09:59:22;;;;;;;7.75;1.13;;;4.30;99.90;;;-146.41;100.00;57768.22;5031984;28;20080;-67
2022/02/07 10:01:51;;;;;;;10.30;1.40;;;4.30;99.90;;;-146.41;100.00;57768.22;5022193;28;20075;-67
2022/02/07 10:04:38;;;;;;;12.02;1.52;;;4.40;99.90;;;-146.41;100.00;57768.22;5021858;28;20212;-67
2022/02/07 10:07:38;;;;;;;11.43;1.77;;;4.60;99.90;;;-146.41;100.00;57768.22;5027799;28;20057;-66
2022/02/07 10:13:38;;;;;;;10.93;1.30;;;4.80;99.90;;;-146.41;100.00;57768.22;5032040;28;20473;-67
2022/02/07 10:15:58;;;;;;;10.90;1.48;;;5.00;99.90;;;-146.41;100.00;57768.22;5021316;28;20054;-67
2022/02/07 10:38:07;;;;;;;18.30;1.60;;;5.60;99.90;;;-146.41;100.00;57768.22;5025746;28;20044;-66
2022/02/07 10:40:54;;;;;;;14.40;1.30;;;5.60;99.90;;;-146.41;100.00;57768.22;5019139;28;20157;-66
2022/02/07 10:46:14;;;;;;;9.70;1.67;;;5.60;99.90;;;-146.41;100.00;57768.22;5025497;28;20466;-67
2022/02/07 10:48:54;;;;;;;12.18;1.58;;;5.60;99.90;;;-146.41;100.00;57768.22;5010877;28;20054;-67
2022/02/07 10:51:32;;;;;;;11.15;1.10;;;5.80;99.90;;;-146.41;100.00;57768.22;5024047;28;20998;-68
2022/02/07 10:54:02;;;;;;;14.90;1.52;;;5.90;99.90;;;-146.41;100.00;57768.22;5024214;28;20140;-66
2022/02/07 10:56:42;;;;;;;14.00;2.03;;;5.70;99.90;;;-146.41;100.00;57768.22;5034966;28;20471;-67
2022/02/07 10:59:17;;;;;;;14.15;1.52;;;5.60;99.90;;;-146.41;100.00;57768.22;5021536;28;20041;-67
2022/02/07 11:04:26;;;;;;;8.90;1.60;;;5.60;99.90;;;-146.41;100.00;57768.22;5019656;28;20382;-67
2022/02/07 11:06:59;;;;;;;8.55;1.30;;;5.80;99.90;;;-146.41;100.00;57768.22;5019647;28;20081;-67
2022/02/07 11:20:08;;;;;;;20.58;2.08;;;5.90;99.90;;;-146.41;100.00;57768.22;5023416;28;20481;-67
2022/02/07 11:23:02;;;;;;;9.75;1.13;;;6.00;99.90;;;-146.41;100.00;57768.22;5020847;28;20046;-67
2022/02/07 11:27:57;;;;;;;9.57;1.52;;;6.80;99.90;;;-146.41;100.00;57768.22;5022191;28;20049;-67
2022/02/07 11:30:57;;;;;;;11.27;1.23;;;7.00;99.90;;;-146.41;100.00;57768.22;5026425;28;20421;-67
2022/02/07 11:33:34;;;;;;;11.52;1.33;;;6.90;99.90;;;-146.41;100.00;57768.22;5028141;28;20050;-67
2022/02/07 11:36:04;;;;;;;7.00;1.15;;;6.60;99.90;;;-146.41;100.00;57768.22;5034199;28;20085;-67
2022/02/07 11:38:30;;;;;;;10.00;1.23;;;6.60;99.90;;;-146.41;100.00;57768.22;5022322;28;20053;-67
2022/02/07 11:40:59;;;;;;;8.68;1.30;;;6.40;99.90;;;-146.41;100.00;57768.22;5029733;28;20081;-66
2022/02/07 11:43:30;;;;;;;9.52;1.30;;;6.40;99.90;;;-146.41;100.00;57768.22;5022309;28;20480;-67
2022/02/07 11:46:07;;;;;;;14.40;1.35;;;6.30;99.90;;;-146.41;100.00;57768.22;5024112;28;20450;-67
2022/02/07 11:48:43;;;;;;;8.43;1.10;;;6.30;99.90;;;-146.41;100.00;57768.22;5020716;28;20050;-67
2022/02/07 11:51:22;;;;;;;8.20;1.40;;;6.30;99.90;;;-146.41;100.00;57768.22;5021124;28;20148;-67
2022/02/07 11:54:04;;;;;;;8.40;1.00;;;6.20;99.90;;;-146.41;100.00;57768.22;5017549;28;20169;-67
2022/02/07 11:56:48;;;;;;;11.55;1.42;;;6.20;99.90;;;-146.41;100.00;57768.22;5021069;28;20152;-67
2022/02/07 11:59:38;;;;;;;8.18;1.10;;;6.30;99.90;;;-146.41;100.00;57768.22;5025289;28;20041;-67
2022/02/07 12:02:18;;;;;;;9.18;1.15;;;6.30;99.90;;;-146.41;100.00;57768.22;5021057;28;20050;-67
2022/02/07 12:04:45;;;;;;;13.00;1.20;;;6.40;99.90;;;-146.41;100.00;57768.22;5020354;28;20072;-67
2022/02/07 12:07:12;;;;;;;11.10;1.30;;;6.40;99.90;;;-146.41;100.00;57768.22;5020032;28;20072;-66
2022/02/07 12:12:39;;;;;;;8.60;1.08;;;6.40;99.90;;;-146.41;100.00;57768.22;5024318;28;20122;-67
2022/02/07 12:15:28;;;;;;;10.45;1.23;;;6.50;99.90;;;-146.41;100.00;57768.22;5020923;28;20045;-67
2022/02/07 12:17:59;;;;;;;11.73;1.10;;;6.40;99.90;;;-146.41;100.00;57768.22;5018104;28;20049;-67
2022/02/07 12:20:32;;;;;;;10.70;0.93;;;6.30;99.90;;;-146.41;100.00;57768.22;5019923;28;20050;-67
2022/02/07 12:23:12;;;;;;;9.75;1.45;;;6.20;99.90;;;-146.41;100.00;57768.22;5019390;28;20049;-67
2022/02/07 12:25:46;;;;;;;8.75;1.45;;;6.20;99.90;;;-146.41;100.00;57768.22;5024924;28;20037;-66
2022/02/07 12:33:34;;;;;;;9.73;1.63;;;6.30;99.90;;;-146.41;100.00;57768.22;5023779;28;20141;-66
2022/02/07 12:36:02;;;;;;;6.38;1.63;;;6.40;99.90;;;-146.41;100.00;57768.22;5019244;28;20446;-66
2022/02/07 12:38:33;;;;;;;10.00;1.20;;;6.40;99.90;;;-146.41;100.00;57768.22;5021494;28;20042;-66
2022/02/07 12:41:07;;;;;;;9.93;1.05;;;6.30;99.90;;;-146.41;100.00;57768.22;5023408;28;20045;-66
2022/02/07 12:43:35;;;;;;;9.15;1.20;;;6.40;99.90;;;-146.41;100.00;57768.22;5025375;28;20052;-66
2022/02/07 12:46:06;;;;;;;9.13;1.02;;;6.40;99.90;;;-146.41;100.00;57768.22;5023084;28;20072;-67
2022/02/07 12:48:37;;;;;;;8.50;1.17;;;6.50;99.90;;;-146.41;100.00;57768.22;5019872;28;20053;-67
2022/02/07 12:51:05;;;;;;;7.47;1.02;;;6.40;99.90;;;-146.41;100.00;57768.22;5018647;28;20487;-67
2022/02/07 12:53:33;;;;;;;9.75;1.35;;;6.30;99.90;;;-146.41;100.00;57768.22;5022737;28;20057;-67
2022/02/07 12:56:04;;;;;;;7.70;1.10;;;6.20;99.90;;;-146.41;100.00;57768.22;5020688;28;20107;-67
2022/02/07 12:58:38;;;;;;;11.15;1.58;;;6.10;99.90;;;-146.41;100.00;57768.22;5023248;28;20470;-67
2022/02/07 13:01:36;;;;;;;10.82;1.23;;;6.00;99.90;;;-146.41;100.00;57768.22;5022989;28;20053;-66
2022/02/07 13:04:13;;;;;;;10.23;1.42;;;6.00;99.90;;;-146.41;100.00;57768.22;5017122;28;20133;-66